sensor_id;sensor_type;location;lat;lon;timestamp;pressure;altitude;pressure_sealevel;temperature;humidity
79309;BME280;68767;53.078;7.386;2024-03-23T09:26:51;100685.53;;;17.02;100.00
79309;BME280;68767;53.078;7.386;2024-03-23T09:43:21;100679.88;;;18.31;100.00
79309;BME280;68767;53.078;7.386;2024-03-23T09:45:46;100686.00;;;18.24;100.00
79309;BME280;68767;53.078;7.386;2024-03-23T09:48:12;100692.53;;;18.20;100.00
79309;BME280;68767;53.078;7.386;2024-03-23T09:52:37;100686.13;;;18.72;100.00
79309;BME280;68767;53.078;7.386;2024-03-23T09:55:37;100683.00;;;18.37;100.00
79309;BME280;68767;53.078;7.386;2024-03-23T09:58:03;100665.09;;;18.32;100.00
79309;BME280;68767;53.078;7.386;2024-03-23T10:07:12;100650.25;;;19.91;100.00
79309;BME280;68767;53.078;7.386;2024-03-23T10:11:16;100654.56;;;19.19;100.00
79309;BME280;68767;53.078;7.386;2024-03-23T10:13:43;100658.44;;;19.15;100.00
79309;BME280;68767;53.078;7.386;2024-03-23T10:16:10;100650.59;;;19.09;100.00
79309;BME280;68767;53.078;7.386;2024-03-23T10:18:39;100660.31;;;19.03;100.00
79309;BME280;68767;53.078;7.386;2024-03-23T10:23:30;100648.19;;;18.97;100.00
79309;BME280;68767;53.078;7.386;2024-03-23T10:31:23;100647.59;;;19.25;100.00
79309;BME280;68767;53.078;7.386;2024-03-23T10:33:49;100646.91;;;19.43;100.00
79309;BME280;68767;53.078;7.386;2024-03-23T10:36:15;100631.75;;;19.49;100.00
79309;BME280;68767;53.078;7.386;2024-03-23T10:38:43;100630.63;;;19.53;100.00
79309;BME280;68767;53.078;7.386;2024-03-23T10:41:09;100614.28;;;19.53;100.00
79309;BME280;68767;53.078;7.386;2024-03-23T10:43:36;100628.72;;;19.61;100.00
79309;BME280;68767;53.078;7.386;2024-03-23T10:46:02;100625.63;;;19.62;100.00
79309;BME280;68767;53.078;7.386;2024-03-23T11:00:02;100564.03;;;11.03;50.22
79309;BME280;68767;53.078;7.386;2024-03-23T11:02:28;100567.91;;;7.07;61.10
79309;BME280;68767;53.078;7.386;2024-03-23T11:04:55;100560.72;;;5.72;68.13
79309;BME280;68767;53.078;7.386;2024-03-23T11:09:52;100553.94;;;4.49;73.68
79309;BME280;68767;53.078;7.386;2024-03-23T11:15:02;100547.78;;;4.33;75.21
79309;BME280;68767;53.078;7.386;2024-03-23T11:17:29;100546.91;;;4.69;75.85
79309;BME280;68767;53.078;7.386;2024-03-23T11:25:23;100540.16;;;5.66;78.07
79309;BME280;68767;53.078;7.386;2024-03-23T11:27:49;100535.06;;;6.12;76.70
79309;BME280;68767;53.078;7.386;2024-03-23T11:30:26;100529.94;;;6.56;75.54
79309;BME280;68767;53.078;7.386;2024-03-23T11:32:56;100527.69;;;6.94;76.82
79309;BME280;68767;53.078;7.386;2024-03-23T11:35:29;100538.31;;;7.21;76.09
79309;BME280;68767;53.078;7.386;2024-03-23T11:40:26;100538.97;;;7.53;72.16
79309;BME280;68767;53.078;7.386;2024-03-23T11:42:56;100543.91;;;7.86;71.65
79309;BME280;68767;53.078;7.386;2024-03-23T11:45:21;100535.03;;;7.75;71.77
79309;BME280;68767;53.078;7.386;2024-03-23T11:47:47;100538.00;;;7.83;72.74
79309;BME280;68767;53.078;7.386;2024-03-23T11:50:19;100545.69;;;7.86;72.60
79309;BME280;68767;53.078;7.386;2024-03-23T11:52:44;100554.00;;;7.35;67.47
79309;BME280;68767;53.078;7.386;2024-03-23T11:55:10;100553.16;;;7.21;69.26
79309;BME280;68767;53.078;7.386;2024-03-23T11:57:36;100552.06;;;7.68;67.72
79309;BME280;68767;53.078;7.386;2024-03-23T12:00:01;100553.66;;;8.11;67.31
79309;BME280;68767;53.078;7.386;2024-03-23T12:02:27;100554.59;;;7.69;67.06
79309;BME280;68767;53.078;7.386;2024-03-23T12:04:53;100545.69;;;7.29;67.02
79309;BME280;68767;53.078;7.386;2024-03-23T12:07:19;100541.97;;;7.33;69.37
79309;BME280;68767;53.078;7.386;2024-03-23T12:09:45;100544.19;;;7.39;68.22
79309;BME280;68767;53.078;7.386;2024-03-23T12:12:14;100546.53;;;7.29;67.20
79309;BME280;68767;53.078;7.386;2024-03-23T12:14:41;100551.03;;;7.70;67.07
79309;BME280;68767;53.078;7.386;2024-03-23T12:17:10;100542.81;;;8.03;65.51
79309;BME280;68767;53.078;7.386;2024-03-23T12:21:26;100533.59;;;8.25;65.69
79309;BME280;68767;53.078;7.386;2024-03-23T12:23:51;100526.91;;;8.33;66.57
79309;BME280;68767;53.078;7.386;2024-03-23T12:26:17;100534.34;;;8.54;62.90
79309;BME280;68767;53.078;7.386;2024-03-23T12:34:15;100525.06;;;17.82;50.65
79309;BME280;68767;53.078;7.386;2024-03-23T12:36:48;100517.22;;;18.47;48.72
79309;BME280;68767;53.078;7.386;2024-03-23T12:39:13;100522.56;;;18.55;48.07
79309;BME280;68767;53.078;7.386;2024-03-23T12:41:38;100525.72;;;18.59;47.92
79309;BME280;68767;53.078;7.386;2024-03-23T12:44:04;100525.38;;;18.62;47.41
79309;BME280;68767;53.078;7.386;2024-03-23T12:50:54;100506.66;;;11.87;45.80
79309;BME280;68767;53.078;7.386;2024-03-23T12:53:20;100512.25;;;10.09;52.70
79309;BME280;68767;53.078;7.386;2024-03-23T12:55:48;100534.03;;;8.46;59.10
79309;BME280;68767;53.078;7.386;2024-03-23T12:58:13;100524.53;;;7.89;60.87
79309;BME280;68767;53.078;7.386;2024-03-23T13:00:39;100524.75;;;7.57;61.59
79309;BME280;68767;53.078;7.386;2024-03-23T13:03:05;100527.09;;;7.05;64.52
79309;BME280;68767;53.078;7.386;2024-03-23T13:05:30;100531.94;;;6.67;62.90
79309;BME280;68767;53.078;7.386;2024-03-23T13:07:56;100521.53;;;6.51;64.90
79309;BME280;68767;53.078;7.386;2024-03-23T13:10:22;100503.72;;;6.57;63.38
79309;BME280;68767;53.078;7.386;2024-03-23T13:12:47;100535.25;;;6.84;63.34
79309;BME280;68767;53.078;7.386;2024-03-23T13:15:13;100530.38;;;7.37;61.75
79309;BME280;68767;53.078;7.386;2024-03-23T13:17:42;100527.94;;;8.31;61.88
79309;BME280;68767;53.078;7.386;2024-03-23T13:20:08;100528.19;;;8.55;60.04
79309;BME280;68767;53.078;7.386;2024-03-23T13:22:38;100520.41;;;8.53;58.44
79309;BME280;68767;53.078;7.386;2024-03-23T13:25:04;100522.72;;;8.31;59.48
79309;BME280;68767;53.078;7.386;2024-03-23T13:27:30;100515.59;;;8.33;61.03
79309;BME280;68767;53.078;7.386;2024-03-23T13:29:55;100514.06;;;8.16;61.49
79309;BME280;68767;53.078;7.386;2024-03-23T13:32:21;100520.78;;;8.20;62.40
79309;BME280;68767;53.078;7.386;2024-03-23T13:34:46;100527.22;;;8.02;61.19
79309;BME280;68767;53.078;7.386;2024-03-23T13:37:16;100522.66;;;7.91;61.83
79309;BME280;68767;53.078;7.386;2024-03-23T13:39:41;100532.88;;;7.81;62.30
79309;BME280;68767;53.078;7.386;2024-03-23T13:42:07;100535.41;;;7.83;62.66
79309;BME280;68767;53.078;7.386;2024-03-23T13:44:34;100537.94;;;8.11;62.85
79309;BME280;68767;53.078;7.386;2024-03-23T13:47:00;100520.50;;;8.25;58.15
79309;BME280;68767;53.078;7.386;2024-03-23T13:49:27;100533.75;;;8.36;56.34
79309;BME280;68767;53.078;7.386;2024-03-23T13:51:54;100529.84;;;8.56;57.06
79309;BME280;68767;53.078;7.386;2024-03-23T13:54:20;100530.84;;;7.99;57.96
79309;BME280;68767;53.078;7.386;2024-03-23T13:56:48;100528.25;;;7.85;59.01
79309;BME280;68767;53.078;7.386;2024-03-23T13:59:14;100524.47;;;7.48;59.21
79309;BME280;68767;53.078;7.386;2024-03-23T14:01:39;100522.97;;;7.15;59.73
79309;BME280;68767;53.078;7.386;2024-03-23T14:04:05;100524.75;;;7.29;61.81
79309;BME280;68767;53.078;7.386;2024-03-23T14:06:31;100512.72;;;7.96;61.76
79309;BME280;68767;53.078;7.386;2024-03-23T14:08:57;100503.50;;;9.23;58.29
79309;BME280;68767;53.078;7.386;2024-03-23T14:11:23;100506.94;;;9.36;58.73
79309;BME280;68767;53.078;7.386;2024-03-23T14:13:48;100510.94;;;9.91;56.85
79309;BME280;68767;53.078;7.386;2024-03-23T14:16:14;100502.44;;;10.11;56.17
79309;BME280;68767;53.078;7.386;2024-03-23T14:18:39;100507.56;;;10.96;54.41
79309;BME280;68767;53.078;7.386;2024-03-23T14:21:04;100491.78;;;11.30;54.14
79309;BME280;68767;53.078;7.386;2024-03-23T14:23:31;100504.94;;;12.08;50.87
79309;BME280;68767;53.078;7.386;2024-03-23T14:25:59;100493.09;;;11.69;50.00
79309;BME280;68767;53.078;7.386;2024-03-23T14:28:25;100501.31;;;12.09;50.72
79309;BME280;68767;53.078;7.386;2024-03-23T14:30:52;100497.75;;;12.63;49.30
79309;BME280;68767;53.078;7.386;2024-03-23T14:33:18;100490.97;;;12.70;49.69
79309;BME280;68767;53.078;7.386;2024-03-23T14:35:52;100513.03;;;13.23;47.85
79309;BME280;68767;53.078;7.386;2024-03-23T14:38:18;100499.09;;;12.79;48.00
79309;BME280;68767;53.078;7.386;2024-03-23T14:40:44;100491.09;;;12.48;50.65
79309;BME280;68767;53.078;7.386;2024-03-23T14:43:09;100490.28;;;12.15;51.29
79309;BME280;68767;53.078;7.386;2024-03-23T14:45:35;100495.00;;;11.89;52.07
79309;BME280;68767;53.078;7.386;2024-03-23T14:48:00;100490.91;;;10.01;55.30
79309;BME280;68767;53.078;7.386;2024-03-23T14:50:26;100508.09;;;9.06;57.83
79309;BME280;68767;53.078;7.386;2024-03-23T14:52:51;100511.63;;;8.54;61.88
79309;BME280;68767;53.078;7.386;2024-03-23T14:55:17;100520.72;;;8.07;59.57
79309;BME280;68767;53.078;7.386;2024-03-23T14:57:43;100516.25;;;7.68;62.45
79309;BME280;68767;53.078;7.386;2024-03-23T15:00:09;100508.09;;;7.58;62.20
79309;BME280;68767;53.078;7.386;2024-03-23T15:02:39;100519.06;;;7.51;62.48
79309;BME280;68767;53.078;7.386;2024-03-23T15:05:05;100511.28;;;7.49;62.27
79309;BME280;68767;53.078;7.386;2024-03-23T15:07:35;100506.66;;;8.23;62.28
79309;BME280;68767;53.078;7.386;2024-03-23T15:10:02;100512.50;;;7.99;62.73
79309;BME280;68767;53.078;7.386;2024-03-23T15:12:29;100496.97;;;9.41;60.77
79309;BME280;68767;53.078;7.386;2024-03-23T15:14:54;100486.47;;;10.74;56.93
79309;BME280;68767;53.078;7.386;2024-03-23T15:17:21;100485.97;;;12.03;51.68
79309;BME280;68767;53.078;7.386;2024-03-23T15:19:47;100479.56;;;13.12;49.65
79309;BME280;68767;53.078;7.386;2024-03-23T15:22:12;100480.03;;;12.96;49.24
79309;BME280;68767;53.078;7.386;2024-03-23T15:24:38;100474.38;;;12.80;50.18
79309;BME280;68767;53.078;7.386;2024-03-23T15:27:04;100474.66;;;12.77;50.21
79309;BME280;68767;53.078;7.386;2024-03-23T15:29:29;100476.78;;;12.30;51.17
79309;BME280;68767;53.078;7.386;2024-03-23T15:31:55;100478.63;;;12.50;51.32
79309;BME280;68767;53.078;7.386;2024-03-23T15:34:20;100479.06;;;11.80;51.05
79309;BME280;68767;53.078;7.386;2024-03-23T15:36:49;100481.06;;;10.75;51.25
79309;BME280;68767;53.078;7.386;2024-03-23T15:39:17;100479.94;;;10.07;54.54
79309;BME280;68767;53.078;7.386;2024-03-23T15:41:46;100463.97;;;10.10;55.64
79309;BME280;68767;53.078;7.386;2024-03-23T15:44:12;100476.34;;;11.14;53.90
79309;BME280;68767;53.078;7.386;2024-03-23T15:46:38;100464.72;;;12.48;48.95
79309;BME280;68767;53.078;7.386;2024-03-23T15:49:04;100461.50;;;12.65;46.61
79309;BME280;68767;53.078;7.386;2024-03-23T15:51:30;100463.56;;;13.34;46.11
79309;BME280;68767;53.078;7.386;2024-03-23T15:54:01;100463.91;;;12.68;46.71
79309;BME280;68767;53.078;7.386;2024-03-23T15:56:28;100460.25;;;13.42;46.49
79309;BME280;68767;53.078;7.386;2024-03-23T15:58:54;100457.63;;;12.69;47.21
79309;BME280;68767;53.078;7.386;2024-03-23T16:01:20;100462.09;;;11.05;50.81
79309;BME280;68767;53.078;7.386;2024-03-23T16:03:45;100453.47;;;11.26;51.77
79309;BME280;68767;53.078;7.386;2024-03-23T16:06:11;100456.94;;;11.49;49.49
79309;BME280;68767;53.078;7.386;2024-03-23T16:08:37;100440.56;;;12.94;50.76
79309;BME280;68767;53.078;7.386;2024-03-23T16:11:04;100442.19;;;13.47;46.56
79309;BME280;68767;53.078;7.386;2024-03-23T16:13:31;100455.53;;;13.36;44.08
79309;BME280;68767;53.078;7.386;2024-03-23T16:16:00;100454.16;;;11.95;49.12
79309;BME280;68767;53.078;7.386;2024-03-23T16:18:28;100453.63;;;11.13;52.71
79309;BME280;68767;53.078;7.386;2024-03-23T16:21:02;100440.78;;;10.15;55.49
79309;BME280;68767;53.078;7.386;2024-03-23T16:23:28;100459.75;;;9.47;57.01
79309;BME280;68767;53.078;7.386;2024-03-23T16:25:54;100426.88;;;8.27;55.36
79309;BME280;68767;53.078;7.386;2024-03-23T16:28:24;100456.28;;;8.05;57.45
79309;BME280;68767;53.078;7.386;2024-03-23T16:30:54;100461.53;;;7.63;59.03
79309;BME280;68767;53.078;7.386;2024-03-23T16:33:20;100452.84;;;7.63;60.28
79309;BME280;68767;53.078;7.386;2024-03-23T16:35:57;100441.19;;;8.08;56.55
79309;BME280;68767;53.078;7.386;2024-03-23T16:38:23;100438.53;;;8.35;57.73
79309;BME280;68767;53.078;7.386;2024-03-23T16:40:56;100447.81;;;7.87;58.20
79309;BME280;68767;53.078;7.386;2024-03-23T16:43:22;100445.44;;;7.70;59.34
79309;BME280;68767;53.078;7.386;2024-03-23T16:46:15;100448.00;;;7.43;59.74
79309;BME280;68767;53.078;7.386;2024-03-23T16:48:44;100450.66;;;7.14;60.02
79309;BME280;68767;53.078;7.386;2024-03-23T16:51:11;100452.41;;;6.99;61.46
79309;BME280;68767;53.078;7.386;2024-03-23T16:53:37;100442.03;;;6.69;60.97
79309;BME280;68767;53.078;7.386;2024-03-23T16:56:10;100439.28;;;6.56;63.34
79309;BME280;68767;53.078;7.386;2024-03-23T16:58:39;100432.00;;;6.47;62.50
79309;BME280;68767;53.078;7.386;2024-03-23T17:01:06;100443.28;;;6.48;63.49
79309;BME280;68767;53.078;7.386;2024-03-23T17:03:54;100439.28;;;6.42;64.18
79309;BME280;68767;53.078;7.386;2024-03-23T17:06:31;100458.13;;;6.47;64.24
79309;BME280;68767;53.078;7.386;2024-03-23T17:08:56;100456.22;;;6.35;63.25
79309;BME280;68767;53.078;7.386;2024-03-23T17:11:22;100466.31;;;6.27;63.32
79309;BME280;68767;53.078;7.386;2024-03-23T17:13:50;100454.50;;;6.20;63.60
79309;BME280;68767;53.078;7.386;2024-03-23T17:16:19;100460.56;;;6.20;63.92
79309;BME280;68767;53.078;7.386;2024-03-23T17:18:44;100453.00;;;6.16;64.68
79309;BME280;68767;53.078;7.386;2024-03-23T17:21:10;100456.69;;;6.12;63.71
79309;BME280;68767;53.078;7.386;2024-03-23T17:23:36;100451.00;;;6.05;63.82
79309;BME280;68767;53.078;7.386;2024-03-23T17:26:01;100450.31;;;6.01;64.80
79309;BME280;68767;53.078;7.386;2024-03-23T17:28:27;100448.81;;;5.97;64.50
79309;BME280;68767;53.078;7.386;2024-03-23T17:30:52;100440.22;;;5.95;64.08
79309;BME280;68767;53.078;7.386;2024-03-23T17:33:18;100447.44;;;5.90;64.84
79309;BME280;68767;53.078;7.386;2024-03-23T17:35:44;100447.03;;;5.82;65.26
79309;BME280;68767;53.078;7.386;2024-03-23T17:38:11;100454.03;;;5.81;65.77
79309;BME280;68767;53.078;7.386;2024-03-23T17:40:37;100444.00;;;5.74;66.49
79309;BME280;68767;53.078;7.386;2024-03-23T17:43:02;100455.53;;;5.70;66.81
79309;BME280;68767;53.078;7.386;2024-03-23T17:45:28;100446.94;;;5.68;65.56
79309;BME280;68767;53.078;7.386;2024-03-23T17:47:54;100447.44;;;5.58;67.23
79309;BME280;68767;53.078;7.386;2024-03-23T17:50:21;100451.75;;;5.59;66.95
79309;BME280;68767;53.078;7.386;2024-03-23T17:52:46;100452.06;;;5.53;66.95
79309;BME280;68767;53.078;7.386;2024-03-23T17:55:12;100450.75;;;5.46;67.37
79309;BME280;68767;53.078;7.386;2024-03-23T17:57:38;100451.81;;;5.42;67.31
79309;BME280;68767;53.078;7.386;2024-03-23T18:00:04;100454.78;;;5.36;66.86
79309;BME280;68767;53.078;7.386;2024-03-23T18:02:39;100454.16;;;5.31;67.20
79309;BME280;68767;53.078;7.386;2024-03-23T18:05:05;100449.28;;;5.25;67.43
79309;BME280;68767;53.078;7.386;2024-03-23T18:07:30;100457.44;;;5.19;67.62
79309;BME280;68767;53.078;7.386;2024-03-23T18:09:56;100451.78;;;5.11;67.89
79309;BME280;68767;53.078;7.386;2024-03-23T18:12:22;100453.38;;;5.13;67.36
79309;BME280;68767;53.078;7.386;2024-03-23T18:14:49;100443.50;;;5.02;67.90
79309;BME280;68767;53.078;7.386;2024-03-23T18:17:15;100442.16;;;4.95;68.71
79309;BME280;68767;53.078;7.386;2024-03-23T18:19:40;100450.72;;;4.97;68.41
79309;BME280;68767;53.078;7.386;2024-03-23T18:22:06;100445.66;;;4.94;68.10
79309;BME280;68767;53.078;7.386;2024-03-23T18:24:32;100444.47;;;4.84;68.60
79309;BME280;68767;53.078;7.386;2024-03-23T18:26:57;100440.94;;;4.85;69.01
79309;BME280;68767;53.078;7.386;2024-03-23T18:29:23;100453.22;;;4.83;67.89
79309;BME280;68767;53.078;7.386;2024-03-23T18:31:49;100450.00;;;4.78;68.38
79309;BME280;68767;53.078;7.386;2024-03-23T18:34:16;100452.84;;;4.73;68.81
79309;BME280;68767;53.078;7.386;2024-03-23T18:36:41;100449.78;;;4.65;69.15
79309;BME280;68767;53.078;7.386;2024-03-23T18:39:07;100441.19;;;4.63;69.28
79309;BME280;68767;53.078;7.386;2024-03-23T18:41:33;100444.22;;;4.55;69.79
79309;BME280;68767;53.078;7.386;2024-03-23T18:43:59;100440.16;;;4.50;69.39
79309;BME280;68767;53.078;7.386;2024-03-23T18:46:27;100449.72;;;4.49;69.44
79309;BME280;68767;53.078;7.386;2024-03-23T18:48:54;100446.22;;;4.50;70.21
79309;BME280;68767;53.078;7.386;2024-03-23T18:51:21;100442.28;;;4.42;70.55
79309;BME280;68767;53.078;7.386;2024-03-23T18:53:46;100448.50;;;4.39;71.55
79309;BME280;68767;53.078;7.386;2024-03-23T18:56:12;100449.66;;;4.33;71.84
79309;BME280;68767;53.078;7.386;2024-03-23T18:58:38;100445.41;;;4.31;72.36
79309;BME280;68767;53.078;7.386;2024-03-23T19:01:05;100446.56;;;4.25;72.09
79309;BME280;68767;53.078;7.386;2024-03-23T19:03:32;100445.03;;;4.21;73.02
79309;BME280;68767;53.078;7.386;2024-03-23T19:05:59;100447.03;;;4.16;73.46
79309;BME280;68767;53.078;7.386;2024-03-23T19:08:25;100444.66;;;4.12;73.20
79309;BME280;68767;53.078;7.386;2024-03-23T19:11:01;100443.09;;;4.07;74.44
79309;BME280;68767;53.078;7.386;2024-03-23T19:13:28;100432.16;;;4.01;74.22
79309;BME280;68767;53.078;7.386;2024-03-23T19:15:54;100438.19;;;4.01;74.32
79309;BME280;68767;53.078;7.386;2024-03-23T19:18:21;100441.88;;;3.97;74.44
79309;BME280;68767;53.078;7.386;2024-03-23T19:20:57;100436.66;;;3.97;74.63
79309;BME280;68767;53.078;7.386;2024-03-23T19:23:25;100443.41;;;4.01;75.11
79309;BME280;68767;53.078;7.386;2024-03-23T19:25:57;100443.94;;;4.08;74.38
79309;BME280;68767;53.078;7.386;2024-03-23T19:28:24;100439.44;;;4.12;74.25
79309;BME280;68767;53.078;7.386;2024-03-23T19:30:50;100429.03;;;4.12;73.92
79309;BME280;68767;53.078;7.386;2024-03-23T19:33:16;100434.09;;;4.15;74.30
79309;BME280;68767;53.078;7.386;2024-03-23T19:35:42;100432.25;;;4.17;73.46
79309;BME280;68767;53.078;7.386;2024-03-23T19:38:08;100414.00;;;4.17;73.50
79309;BME280;68767;53.078;7.386;2024-03-23T19:40:34;100423.34;;;4.21;72.67
79309;BME280;68767;53.078;7.386;2024-03-23T19:43:02;100423.34;;;4.21;72.84
79309;BME280;68767;53.078;7.386;2024-03-23T19:45:28;100415.06;;;4.13;71.90
79309;BME280;68767;53.078;7.386;2024-03-23T19:47:57;100416.00;;;4.12;71.95
79309;BME280;68767;53.078;7.386;2024-03-23T19:50:23;100415.31;;;4.08;72.63
79309;BME280;68767;53.078;7.386;2024-03-23T19:52:49;100413.00;;;4.02;73.27
79309;BME280;68767;53.078;7.386;2024-03-23T19:55:16;100402.59;;;4.02;72.50
79309;BME280;68767;53.078;7.386;2024-03-23T19:57:42;100401.91;;;3.98;72.28
79309;BME280;68767;53.078;7.386;2024-03-23T20:00:09;100403.88;;;3.93;72.29
79309;BME280;68767;53.078;7.386;2024-03-23T20:02:37;100419.50;;;3.93;72.71
79309;BME280;68767;53.078;7.386;2024-03-23T20:05:03;100406.72;;;3.89;72.46
79309;BME280;68767;53.078;7.386;2024-03-23T20:07:29;100403.75;;;3.96;72.69
79309;BME280;68767;53.078;7.386;2024-03-23T20:09:55;100405.13;;;4.03;72.14
79309;BME280;68767;53.078;7.386;2024-03-23T20:12:20;100396.41;;;4.04;71.80
79309;BME280;68767;53.078;7.386;2024-03-23T20:14:46;100399.91;;;4.03;72.13
79309;BME280;68767;53.078;7.386;2024-03-23T20:17:12;100394.25;;;4.13;71.76
79309;BME280;68767;53.078;7.386;2024-03-23T20:19:37;100404.19;;;4.22;71.61
79309;BME280;68767;53.078;7.386;2024-03-23T20:22:04;100396.00;;;4.29;71.62
79309;BME280;68767;53.078;7.386;2024-03-23T20:24:31;100400.91;;;4.36;72.17
79309;BME280;68767;53.078;7.386;2024-03-23T20:26:57;100398.38;;;4.34;72.16
79309;BME280;68767;53.078;7.386;2024-03-23T20:29:24;100390.66;;;4.32;72.07
79309;BME280;68767;53.078;7.386;2024-03-23T20:31:50;100408.66;;;4.37;73.11
79309;BME280;68767;53.078;7.386;2024-03-23T20:34:18;100401.78;;;4.36;72.69
79309;BME280;68767;53.078;7.386;2024-03-23T20:36:43;100400.75;;;4.39;74.40
79309;BME280;68767;53.078;7.386;2024-03-23T20:39:10;100407.13;;;4.33;73.44
79309;BME280;68767;53.078;7.386;2024-03-23T20:41:36;100409.13;;;4.28;75.53
79309;BME280;68767;53.078;7.386;2024-03-23T20:44:01;100394.72;;;4.21;76.32
79309;BME280;68767;53.078;7.386;2024-03-23T20:46:27;100387.34;;;4.12;76.67
79309;BME280;68767;53.078;7.386;2024-03-23T20:48:52;100376.25;;;4.08;76.46
79309;BME280;68767;53.078;7.386;2024-03-23T20:51:18;100377.25;;;4.05;76.90
79309;BME280;68767;53.078;7.386;2024-03-23T20:53:45;100370.66;;;3.98;77.32
79309;BME280;68767;53.078;7.386;2024-03-23T20:56:11;100372.41;;;3.98;77.65
79309;BME280;68767;53.078;7.386;2024-03-23T20:58:37;100368.44;;;3.91;77.68
79309;BME280;68767;53.078;7.386;2024-03-23T21:01:05;100361.72;;;3.87;77.47
79309;BME280;68767;53.078;7.386;2024-03-23T21:03:31;100370.50;;;3.84;77.08
79309;BME280;68767;53.078;7.386;2024-03-23T21:05:58;100367.59;;;3.73;77.72
79309;BME280;68767;53.078;7.386;2024-03-23T21:08:24;100364.19;;;3.71;76.33
79309;BME280;68767;53.078;7.386;2024-03-23T21:10:54;100365.00;;;3.73;75.77
79309;BME280;68767;53.078;7.386;2024-03-23T21:13:21;100358.38;;;3.66;76.78
79309;BME280;68767;53.078;7.386;2024-03-23T21:15:52;100359.09;;;3.69;76.09
79309;BME280;68767;53.078;7.386;2024-03-23T21:18:18;100351.06;;;3.74;74.58
79309;BME280;68767;53.078;7.386;2024-03-23T21:20:45;100357.22;;;3.71;75.58
79309;BME280;68767;53.078;7.386;2024-03-23T21:23:10;100353.03;;;3.69;75.15
79309;BME280;68767;53.078;7.386;2024-03-23T21:25:39;100354.09;;;3.65;75.33
79309;BME280;68767;53.078;7.386;2024-03-23T21:28:06;100353.31;;;3.63;75.17
79309;BME280;68767;53.078;7.386;2024-03-23T21:30:35;100348.94;;;3.63;74.63
79309;BME280;68767;53.078;7.386;2024-03-23T21:33:00;100355.03;;;3.64;75.66
79309;BME280;68767;53.078;7.386;2024-03-23T21:35:26;100338.72;;;3.60;75.00
79309;BME280;68767;53.078;7.386;2024-03-23T21:37:52;100337.72;;;3.63;75.00
79309;BME280;68767;53.078;7.386;2024-03-23T21:40:18;100335.09;;;3.63;74.87
79309;BME280;68767;53.078;7.386;2024-03-23T21:42:44;100334.44;;;3.59;75.93
79309;BME280;68767;53.078;7.386;2024-03-23T21:45:09;100317.06;;;3.60;74.58
79309;BME280;68767;53.078;7.386;2024-03-23T21:47:35;100320.56;;;3.59;74.51
79309;BME280;68767;53.078;7.386;2024-03-23T21:50:00;100310.47;;;3.52;75.46
79309;BME280;68767;53.078;7.386;2024-03-23T21:52:26;100299.91;;;3.55;75.02
79309;BME280;68767;53.078;7.386;2024-03-23T21:54:52;100301.59;;;3.56;75.37
79309;BME280;68767;53.078;7.386;2024-03-23T21:57:18;100301.91;;;3.50;76.03
79309;BME280;68767;53.078;7.386;2024-03-23T21:59:44;100296.38;;;3.56;75.17
79309;BME280;68767;53.078;7.386;2024-03-23T22:02:12;100296.53;;;3.53;75.09
79309;BME280;68767;53.078;7.386;2024-03-23T22:04:38;100301.44;;;3.60;75.43
79309;BME280;68767;53.078;7.386;2024-03-23T22:07:04;100293.78;;;3.56;75.02
79309;BME280;68767;53.078;7.386;2024-03-23T22:09:29;100289.66;;;3.52;75.21
79309;BME280;68767;53.078;7.386;2024-03-23T22:11:55;100286.97;;;3.54;75.34
79309;BME280;68767;53.078;7.386;2024-03-23T22:14:23;100278.78;;;3.62;75.63
79309;BME280;68767;53.078;7.386;2024-03-23T22:16:48;100281.25;;;3.65;75.21
79309;BME280;68767;53.078;7.386;2024-03-23T22:19:14;100267.94;;;3.71;74.60
79309;BME280;68767;53.078;7.386;2024-03-23T22:21:40;100266.25;;;3.70;75.34
79309;BME280;68767;53.078;7.386;2024-03-23T22:24:05;100262.72;;;3.71;75.10
79309;BME280;68767;53.078;7.386;2024-03-23T22:26:31;100265.00;;;3.77;74.71
79309;BME280;68767;53.078;7.386;2024-03-23T22:28:57;100263.28;;;3.77;75.39
79309;BME280;68767;53.078;7.386;2024-03-23T22:31:22;100257.75;;;3.84;75.02
79309;BME280;68767;53.078;7.386;2024-03-23T22:33:48;100253.38;;;3.84;75.43
79309;BME280;68767;53.078;7.386;2024-03-23T22:36:13;100238.59;;;3.85;75.55
79309;BME280;68767;53.078;7.386;2024-03-23T22:38:38;100248.03;;;3.87;75.88
79309;BME280;68767;53.078;7.386;2024-03-23T22:41:04;100247.84;;;3.90;75.93
79309;BME280;68767;53.078;7.386;2024-03-23T22:43:33;100241.16;;;3.86;75.94
79309;BME280;68767;53.078;7.386;2024-03-23T22:46:03;100226.44;;;3.85;76.17
79309;BME280;68767;53.078;7.386;2024-03-23T22:48:31;100229.03;;;3.85;76.33
79309;BME280;68767;53.078;7.386;2024-03-23T22:50:59;100211.00;;;3.82;77.71
79309;BME280;68767;53.078;7.386;2024-03-23T22:53:26;100213.75;;;3.79;77.50
79309;BME280;68767;53.078;7.386;2024-03-23T22:55:53;100208.44;;;3.80;76.73
79309;BME280;68767;53.078;7.386;2024-03-23T22:58:19;100205.16;;;3.77;77.43
79309;BME280;68767;53.078;7.386;2024-03-23T23:00:47;100198.13;;;3.79;76.30
79309;BME280;68767;53.078;7.386;2024-03-23T23:03:19;100199.81;;;3.80;76.79
79309;BME280;68767;53.078;7.386;2024-03-23T23:05:46;100193.75;;;3.79;76.25
79309;BME280;68767;53.078;7.386;2024-03-23T23:08:21;100176.31;;;3.81;76.03
79309;BME280;68767;53.078;7.386;2024-03-23T23:10:47;100189.09;;;3.86;76.29
79309;BME280;68767;53.078;7.386;2024-03-23T23:13:13;100188.91;;;3.89;75.96
79309;BME280;68767;53.078;7.386;2024-03-23T23:15:38;100183.72;;;3.89;76.00
79309;BME280;68767;53.078;7.386;2024-03-23T23:18:04;100185.16;;;3.95;75.34
79309;BME280;68767;53.078;7.386;2024-03-23T23:20:32;100185.09;;;3.96;75.63
79309;BME280;68767;53.078;7.386;2024-03-23T23:22:58;100186.63;;;4.00;75.89
79309;BME280;68767;53.078;7.386;2024-03-23T23:25:23;100177.88;;;4.01;76.36
79309;BME280;68767;53.078;7.386;2024-03-23T23:27:49;100175.88;;;4.06;75.55
79309;BME280;68767;53.078;7.386;2024-03-23T23:30:16;100161.91;;;4.07;75.19